createdAt,value
2022-09-12T00:00:33.724Z,1012.66
2022-09-12T00:01:33.781Z,1012.65
2022-09-12T00:02:33.745Z,1012.64
2022-09-12T00:03:33.722Z,1012.59
2022-09-12T00:04:33.730Z,1012.61
2022-09-12T00:05:33.730Z,1012.57
2022-09-12T00:06:33.725Z,1012.58
2022-09-12T00:07:33.731Z,1012.65
2022-09-12T00:08:33.725Z,1012.58
2022-09-12T00:09:33.712Z,1012.60
2022-09-12T00:10:33.720Z,1012.56
2022-09-12T00:11:33.751Z,1012.55
2022-09-12T00:12:33.724Z,1012.53
2022-09-12T00:13:36.341Z,1012.53
2022-09-12T00:14:33.715Z,1012.53
2022-09-12T00:15:33.733Z,1012.50
2022-09-12T00:16:33.779Z,1012.51
2022-09-12T00:17:33.715Z,1012.49
2022-09-12T00:18:33.709Z,1012.49
2022-09-12T00:19:33.702Z,1012.49
2022-09-12T00:20:33.741Z,1012.44
2022-09-12T00:21:33.701Z,1012.46
2022-09-12T00:22:33.697Z,1012.43
2022-09-12T00:23:33.689Z,1012.46
2022-09-12T00:24:33.705Z,1012.45
2022-09-12T00:25:33.699Z,1012.46
2022-09-12T00:26:33.689Z,1012.46
2022-09-12T00:27:33.686Z,1012.49
2022-09-12T00:28:33.697Z,1012.47
2022-09-12T00:29:33.689Z,1012.54
2022-09-12T00:30:33.690Z,1012.47
2022-09-12T00:31:33.717Z,1012.49
2022-09-12T00:32:33.693Z,1012.45
2022-09-12T00:33:33.697Z,1012.47
2022-09-12T00:34:33.723Z,1012.46
2022-09-12T00:35:33.683Z,1012.46
2022-09-12T00:36:33.712Z,1012.52
2022-09-12T00:37:33.690Z,1012.47
2022-09-12T00:38:33.693Z,1012.50
2022-09-12T00:39:33.675Z,1012.53
2022-09-12T00:40:33.677Z,1012.53
2022-09-12T00:41:33.685Z,1012.54
2022-09-12T00:42:33.672Z,1012.55
2022-09-12T00:43:33.677Z,1012.55
2022-09-12T00:44:33.677Z,1012.49
2022-09-12T00:45:33.689Z,1012.53
2022-09-12T00:46:33.671Z,1012.51
2022-09-12T00:47:33.675Z,1012.52
2022-09-12T00:48:33.669Z,1012.50
2022-09-12T00:49:33.687Z,1012.48
2022-09-12T00:50:33.695Z,1012.47
2022-09-12T00:51:33.664Z,1012.47
2022-09-12T00:52:33.669Z,1012.47
2022-09-12T00:53:33.663Z,1012.48
2022-09-12T00:54:33.661Z,1012.45
2022-09-12T00:55:33.657Z,1012.45
2022-09-12T00:56:33.666Z,1012.47
2022-09-12T00:57:33.661Z,1012.46
2022-09-12T00:58:33.648Z,1012.44
2022-09-12T00:59:33.653Z,1012.44
2022-09-12T01:00:33.661Z,1012.49
2022-09-12T01:01:33.781Z,1012.47
2022-09-12T01:02:33.658Z,1012.44
2022-09-12T01:03:33.744Z,1012.48
2022-09-12T01:04:33.671Z,1012.45
2022-09-12T01:05:33.642Z,1012.43
2022-09-12T01:06:33.644Z,1012.46
2022-09-12T01:07:36.866Z,1012.42
2022-09-12T01:08:33.656Z,1012.44
2022-09-12T01:09:33.647Z,1012.41
2022-09-12T01:10:33.653Z,1012.42
2022-09-12T01:11:33.638Z,1012.41
2022-09-12T01:12:33.663Z,1012.39
2022-09-12T01:13:33.640Z,1012.40
2022-09-12T01:14:33.657Z,1012.39
2022-09-12T01:15:33.624Z,1012.39
2022-09-12T01:16:33.666Z,1012.41
2022-09-12T01:17:33.627Z,1012.42
2022-09-12T01:18:33.627Z,1012.41
2022-09-12T01:19:33.677Z,1012.42
2022-09-12T01:20:33.633Z,1012.41
2022-09-12T01:21:33.627Z,1012.41
2022-09-12T01:22:33.645Z,1012.38
2022-09-12T01:23:33.617Z,1012.36
2022-09-12T01:24:33.631Z,1012.41
2022-09-12T01:25:33.621Z,1012.42
2022-09-12T01:26:33.608Z,1012.41
2022-09-12T01:27:33.603Z,1012.44
2022-09-12T01:28:33.601Z,1012.45
2022-09-12T01:29:33.625Z,1012.45
2022-09-12T01:30:33.620Z,1012.45
2022-09-12T01:31:33.623Z,1012.49
2022-09-12T01:32:33.617Z,1012.46
2022-09-12T01:33:33.621Z,1012.48
2022-09-12T01:34:33.618Z,1012.47
2022-09-12T01:35:33.607Z,1012.49
2022-09-12T01:36:33.666Z,1012.45
2022-09-12T01:37:33.594Z,1012.45
2022-09-12T01:38:33.593Z,1012.43
2022-09-12T01:39:33.583Z,1012.38
2022-09-12T01:40:33.586Z,1012.40
2022-09-12T01:41:33.637Z,1012.35
2022-09-12T01:42:33.583Z,1012.40
2022-09-12T01:43:33.586Z,1012.34
2022-09-12T01:44:33.586Z,1012.34
2022-09-12T01:45:33.616Z,1012.32
2022-09-12T01:46:40.746Z,1012.28
2022-09-12T01:48:37.574Z,1012.35
2022-09-12T01:49:37.586Z,1012.34
2022-09-12T01:51:41.528Z,1012.29
2022-09-12T01:52:41.527Z,1012.33
2022-09-12T01:54:45.526Z,1012.33
2022-09-12T01:55:45.499Z,1012.28
2022-09-12T01:57:38.450Z,1012.27
2022-09-12T01:58:38.410Z,1012.23
2022-09-12T02:00:42.411Z,1012.32
2022-09-12T02:01:42.398Z,1012.28
2022-09-12T02:03:46.394Z,1012.33
2022-09-12T02:04:46.370Z,1012.29
2022-09-12T02:06:50.371Z,1012.30
2022-09-12T02:07:50.350Z,1012.33
2022-09-12T02:09:54.383Z,1012.32
2022-09-12T02:10:54.358Z,1012.32
2022-09-12T02:12:58.351Z,1012.32
2022-09-12T02:13:58.341Z,1012.33
2022-09-12T02:16:02.376Z,1012.35
2022-09-12T02:17:02.312Z,1012.34
2022-09-12T02:19:06.457Z,1012.33
2022-09-12T02:20:06.340Z,1012.33
2022-09-12T02:22:10.338Z,1012.34
2022-09-12T02:23:10.306Z,1012.30
2022-09-12T02:25:14.318Z,1012.31
2022-09-12T02:26:14.287Z,1012.34
2022-09-12T02:28:18.311Z,1012.31
2022-09-12T02:29:18.278Z,1012.31
2022-09-12T02:31:22.279Z,1012.28
2022-09-12T02:32:22.266Z,1012.29
2022-09-12T02:34:26.266Z,1012.25
2022-09-12T02:35:26.256Z,1012.25
2022-09-12T02:37:19.219Z,1012.27
2022-09-12T02:38:19.180Z,1012.24
2022-09-12T02:40:23.205Z,1012.25
2022-09-12T02:41:23.245Z,1012.22
2022-09-12T02:43:27.162Z,1012.21
2022-09-12T02:44:27.142Z,1012.23
2022-09-12T02:46:31.319Z,1012.24
2022-09-12T02:47:31.124Z,1012.26
2022-09-12T02:49:35.107Z,1012.26
2022-09-12T02:50:35.107Z,1012.33
2022-09-12T02:52:39.148Z,1012.34
2022-09-12T02:53:39.112Z,1012.29
2022-09-12T02:55:43.090Z,1012.31
2022-09-12T02:56:43.093Z,1012.32
2022-09-12T02:58:47.372Z,1012.29
2022-09-12T02:59:47.041Z,1012.31
2022-09-12T03:01:51.074Z,1012.34
2022-09-12T03:02:51.064Z,1012.32
2022-09-12T03:04:55.037Z,1012.38
2022-09-12T03:05:55.086Z,1012.35
2022-09-12T03:07:47.967Z,1012.40
2022-09-12T03:08:47.963Z,1012.40
2022-09-12T03:10:51.970Z,1012.35
2022-09-12T03:11:51.940Z,1012.34
2022-09-12T03:13:55.924Z,1012.36
2022-09-12T03:14:55.919Z,1012.35
2022-09-12T03:16:59.918Z,1012.35
2022-09-12T03:17:59.893Z,1012.30
2022-09-12T03:20:03.881Z,1012.31
2022-09-12T03:21:03.876Z,1012.27
2022-09-12T03:23:07.869Z,1012.33
2022-09-12T03:24:07.854Z,1012.30
2022-09-12T03:26:11.855Z,1012.31
2022-09-12T03:27:11.880Z,1012.31
2022-09-12T03:29:16.956Z,1012.28
2022-09-12T03:30:16.540Z,1012.29
2022-09-12T03:31:16.545Z,1012.31
2022-09-12T03:32:16.533Z,1012.30
2022-09-12T03:33:16.519Z,1012.33
2022-09-12T03:34:16.518Z,1012.35
2022-09-12T03:35:18.851Z,1012.32
2022-09-12T03:36:16.515Z,1012.34
2022-09-12T03:37:16.513Z,1012.33
2022-09-12T03:38:16.523Z,1012.33
2022-09-12T03:39:16.507Z,1012.36
2022-09-12T03:40:16.568Z,1012.35
2022-09-12T03:41:16.511Z,1012.33
2022-09-12T03:42:16.522Z,1012.36
2022-09-12T03:43:16.504Z,1012.40
2022-09-12T03:44:16.503Z,1012.40
2022-09-12T03:45:16.503Z,1012.39
2022-09-12T03:46:16.494Z,1012.37
2022-09-12T03:47:16.503Z,1012.34
2022-09-12T03:48:16.494Z,1012.34
2022-09-12T03:49:16.496Z,1012.33
2022-09-12T03:50:16.500Z,1012.30
2022-09-12T03:51:16.486Z,1012.32
2022-09-12T03:52:16.489Z,1012.34
2022-09-12T03:53:17.341Z,1012.31
2022-09-12T03:54:16.484Z,1012.29
2022-09-12T03:55:16.479Z,1012.30
2022-09-12T03:56:16.474Z,1012.33
2022-09-12T03:57:16.475Z,1012.36
2022-09-12T03:58:16.483Z,1012.39
2022-09-12T03:59:16.469Z,1012.43
2022-09-12T04:00:19.727Z,1012.45
2022-09-12T04:01:16.514Z,1012.47
2022-09-12T04:02:16.481Z,1012.48
2022-09-12T04:03:16.459Z,1012.51
2022-09-12T04:04:16.463Z,1012.52
2022-09-12T04:05:16.454Z,1012.52
2022-09-12T04:06:16.452Z,1012.51
2022-09-12T04:07:16.455Z,1012.52
2022-09-12T04:08:16.494Z,1012.48
2022-09-12T04:09:16.454Z,1012.48
2022-09-12T04:10:16.534Z,1012.53
2022-09-12T04:11:16.451Z,1012.50
2022-09-12T04:12:16.445Z,1012.46
2022-09-12T04:13:16.437Z,1012.46
2022-09-12T04:14:16.444Z,1012.43
2022-09-12T04:15:16.444Z,1012.46
2022-09-12T04:16:16.509Z,1012.42
2022-09-12T04:17:16.432Z,1012.46
2022-09-12T04:18:16.427Z,1012.41
2022-09-12T04:19:16.428Z,1012.45
2022-09-12T04:20:16.424Z,1012.42
2022-09-12T04:21:16.440Z,1012.40
2022-09-12T04:22:16.423Z,1012.44
2022-09-12T04:23:16.417Z,1012.43
2022-09-12T04:24:16.421Z,1012.43
2022-09-12T04:25:16.413Z,1012.40
2022-09-12T04:26:16.414Z,1012.46
2022-09-12T04:27:16.415Z,1012.42
2022-09-12T04:28:16.416Z,1012.41
2022-09-12T04:29:16.411Z,1012.44
2022-09-12T04:30:16.442Z,1012.43
2022-09-12T04:31:16.401Z,1012.39
2022-09-12T04:32:16.399Z,1012.41
2022-09-12T04:33:16.414Z,1012.42
2022-09-12T04:34:16.403Z,1012.43
2022-09-12T04:35:16.401Z,1012.39
2022-09-12T04:36:16.404Z,1012.40
2022-09-12T04:37:16.393Z,1012.42
2022-09-12T04:38:16.397Z,1012.39
2022-09-12T04:39:16.388Z,1012.40
2022-09-12T04:40:16.412Z,1012.40
2022-09-12T04:41:16.384Z,1012.43
2022-09-12T04:42:16.385Z,1012.45
2022-09-12T04:43:16.377Z,1012.42
2022-09-12T04:44:16.385Z,1012.46
2022-09-12T04:45:16.373Z,1012.44
2022-09-12T04:46:16.380Z,1012.46
2022-09-12T04:47:16.392Z,1012.47
2022-09-12T04:48:16.369Z,1012.46
2022-09-12T04:49:16.370Z,1012.43
2022-09-12T04:50:16.369Z,1012.44
2022-09-12T04:51:16.364Z,1012.42
2022-09-12T04:52:16.386Z,1012.43
2022-09-12T04:53:16.348Z,1012.40
2022-09-12T04:54:16.360Z,1012.40
2022-09-12T04:55:16.375Z,1012.43
2022-09-12T04:56:16.357Z,1012.41
2022-09-12T04:57:16.360Z,1012.44
2022-09-12T04:58:16.346Z,1012.43
2022-09-12T04:59:16.346Z,1012.42
2022-09-12T05:00:16.350Z,1012.45
2022-09-12T05:01:16.404Z,1012.42
2022-09-12T05:02:16.397Z,1012.45
2022-09-12T05:03:16.344Z,1012.38
2022-09-12T05:04:16.335Z,1012.38
2022-09-12T05:05:16.329Z,1012.40
2022-09-12T05:06:16.355Z,1012.38
2022-09-12T05:07:16.327Z,1012.39
2022-09-12T05:08:16.325Z,1012.40
2022-09-12T05:09:16.322Z,1012.40
2022-09-12T05:10:16.324Z,1012.42
2022-09-12T05:11:16.316Z,1012.42
2022-09-12T05:12:16.334Z,1012.40
2022-09-12T05:13:16.331Z,1012.42
2022-09-12T05:14:16.310Z,1012.41
2022-09-12T05:15:16.313Z,1012.42
2022-09-12T05:16:16.356Z,1012.43
2022-09-12T05:17:16.300Z,1012.44
2022-09-12T05:18:16.301Z,1012.42
2022-09-12T05:19:16.315Z,1012.46
2022-09-12T05:20:16.303Z,1012.49
2022-09-12T05:21:16.299Z,1012.49
2022-09-12T05:22:16.305Z,1012.52
2022-09-12T05:23:16.297Z,1012.51
2022-09-12T05:24:16.285Z,1012.51
2022-09-12T05:25:16.283Z,1012.45
2022-09-12T05:26:16.281Z,1012.50
2022-09-12T05:27:16.278Z,1012.48
2022-09-12T05:28:16.295Z,1012.51
2022-09-12T05:29:16.271Z,1012.49
2022-09-12T05:30:16.280Z,1012.49
2022-09-12T05:31:16.283Z,1012.52
2022-09-12T05:32:16.280Z,1012.52
2022-09-12T05:33:16.283Z,1012.53
2022-09-12T05:34:16.277Z,1012.52
2022-09-12T05:35:16.277Z,1012.56
2022-09-12T05:36:16.279Z,1012.54
2022-09-12T05:37:16.257Z,1012.59
2022-09-12T05:38:16.256Z,1012.50
2022-09-12T05:39:16.252Z,1012.60
2022-09-12T05:40:16.289Z,1012.61
2022-09-12T05:41:18.353Z,1012.60
2022-09-12T05:42:16.256Z,1012.57
2022-09-12T05:43:16.251Z,1012.64
2022-09-12T05:44:16.243Z,1012.63
2022-09-12T05:45:16.246Z,1012.65
2022-09-12T05:46:16.236Z,1012.65
2022-09-12T05:47:16.245Z,1012.63
2022-09-12T05:48:16.232Z,1012.63
2022-09-12T05:49:16.229Z,1012.69
2022-09-12T05:50:16.228Z,1012.69
2022-09-12T05:51:16.236Z,1012.72
2022-09-12T05:52:16.239Z,1012.69
2022-09-12T05:53:16.228Z,1012.68
2022-09-12T05:54:16.228Z,1012.69
2022-09-12T05:55:16.252Z,1012.68
2022-09-12T05:56:16.232Z,1012.72
2022-09-12T05:57:16.251Z,1012.70
2022-09-12T05:58:16.216Z,1012.72
2022-09-12T05:59:16.213Z,1012.72
2022-09-12T06:00:16.206Z,1012.72
2022-09-12T06:01:16.294Z,1012.79
2022-09-12T06:02:16.268Z,1012.75
2022-09-12T06:03:16.208Z,1012.79
2022-09-12T06:04:16.195Z,1012.74
2022-09-12T06:05:16.204Z,1012.81
2022-09-12T06:06:16.201Z,1012.79
2022-09-12T06:07:16.216Z,1012.80
2022-09-12T06:08:16.208Z,1012.76
2022-09-12T06:09:16.198Z,1012.75
2022-09-12T06:10:16.186Z,1012.76
2022-09-12T06:11:16.188Z,1012.80
2022-09-12T06:12:16.185Z,1012.78
2022-09-12T06:13:16.177Z,1012.80
2022-09-12T06:14:16.177Z,1012.84
2022-09-12T06:15:16.176Z,1012.84
2022-09-12T06:16:16.230Z,1012.82
2022-09-12T06:17:16.177Z,1012.85
2022-09-12T06:18:16.182Z,1012.87
2022-09-12T06:19:16.184Z,1012.85
2022-09-12T06:20:16.179Z,1012.86
2022-09-12T06:21:16.190Z,1012.86
2022-09-12T06:22:16.162Z,1012.86
2022-09-12T06:23:16.168Z,1012.92
2022-09-12T06:24:16.164Z,1012.93
2022-09-12T06:25:16.164Z,1012.92
2022-09-12T06:26:16.168Z,1012.90
2022-09-12T06:27:16.201Z,1012.92
2022-09-12T06:28:16.155Z,1012.91
2022-09-12T06:29:16.153Z,1012.95
2022-09-12T06:30:16.160Z,1012.98
2022-09-12T06:31:16.162Z,1012.95
2022-09-12T06:32:16.175Z,1012.93
2022-09-12T06:33:16.159Z,1012.95
2022-09-12T06:34:16.141Z,1012.98
2022-09-12T06:35:16.142Z,1012.99
2022-09-12T06:36:16.143Z,1013.02
2022-09-12T06:37:16.146Z,1013.02
2022-09-12T06:38:16.142Z,1013.04
2022-09-12T06:39:16.162Z,1013.07
2022-09-12T06:40:16.183Z,1013.08
2022-09-12T06:41:16.138Z,1013.14
2022-09-12T06:42:16.134Z,1013.04
2022-09-12T06:43:16.162Z,1013.09
2022-09-12T06:44:16.331Z,1013.04
2022-09-12T06:45:16.141Z,1013.06
2022-09-12T06:46:16.159Z,1013.04
2022-09-12T06:47:16.180Z,1013.08
2022-09-12T06:48:16.128Z,1013.04
2022-09-12T06:49:16.135Z,1013.05
2022-09-12T06:50:16.125Z,1013.07
2022-09-12T06:51:16.130Z,1013.07
2022-09-12T06:52:16.135Z,1013.09
2022-09-12T06:53:16.131Z,1013.06
2022-09-12T06:54:16.127Z,1013.06
2022-09-12T06:55:19.816Z,1013.06
2022-09-12T06:56:16.161Z,1013.07
2022-09-12T06:57:16.134Z,1013.06
2022-09-12T06:58:16.180Z,1013.04
2022-09-12T06:59:16.148Z,1013.04
2022-09-12T07:00:16.138Z,1013.03
2022-09-12T07:01:16.185Z,1012.99
2022-09-12T07:02:16.181Z,1013.05
2022-09-12T07:03:16.118Z,1013.08
2022-09-12T07:04:16.128Z,1013.03
2022-09-12T07:05:16.134Z,1013.06
2022-09-12T07:06:16.132Z,1013.04
2022-09-12T07:07:16.139Z,1013.07
2022-09-12T07:08:16.131Z,1013.07
2022-09-12T07:09:16.124Z,1013.03
2022-09-12T07:10:19.113Z,1013.05
2022-09-12T07:11:16.141Z,1013.02
2022-09-12T07:12:16.148Z,1013.04
2022-09-12T07:13:16.138Z,1013.01
2022-09-12T07:14:16.151Z,1013.03
2022-09-12T07:15:16.153Z,1012.97
2022-09-12T07:16:19.607Z,1013.01
2022-09-12T07:17:16.175Z,1013.02
2022-09-12T07:18:16.167Z,1013.07
2022-09-12T07:19:16.185Z,1013.11
2022-09-12T07:20:16.193Z,1013.13
2022-09-12T07:21:16.192Z,1013.15
2022-09-12T07:22:16.207Z,1013.22
2022-09-12T07:23:16.218Z,1013.15
2022-09-12T07:24:16.218Z,1013.17
2022-09-12T07:25:16.213Z,1013.16
2022-09-12T07:26:16.222Z,1013.23
2022-09-12T07:27:16.223Z,1013.21
2022-09-12T07:28:16.226Z,1013.22
2022-09-12T07:29:35.838Z,1013.21
2022-09-12T07:30:16.253Z,1013.24
2022-09-12T07:31:16.384Z,1013.26
2022-09-12T07:32:16.273Z,1013.24
2022-09-12T07:33:16.277Z,1013.25
2022-09-12T07:34:16.623Z,1013.27
2022-09-12T07:35:16.305Z,1013.29
2022-09-12T07:36:16.316Z,1013.27
2022-09-12T07:37:16.329Z,1013.23
2022-09-12T07:38:16.351Z,1013.24
2022-09-12T07:39:16.362Z,1013.24
2022-09-12T07:40:16.394Z,1013.27
2022-09-12T07:41:16.377Z,1013.23
2022-09-12T07:42:16.399Z,1013.27
2022-09-12T07:43:16.412Z,1013.25
2022-09-12T07:44:16.416Z,1013.26
2022-09-12T07:45:16.510Z,1013.30
2022-09-12T07:46:16.499Z,1013.27
2022-09-12T07:47:16.467Z,1013.32
2022-09-12T07:48:16.482Z,1013.33
2022-09-12T07:49:16.487Z,1013.27
2022-09-12T07:50:16.517Z,1013.27
2022-09-12T07:51:16.578Z,1013.27
2022-09-12T07:52:16.535Z,1013.22
2022-09-12T07:53:16.563Z,1013.25
2022-09-12T07:54:16.582Z,1013.27
2022-09-12T07:55:16.584Z,1013.25
2022-09-12T07:56:16.595Z,1013.27
2022-09-12T07:57:16.600Z,1013.25
2022-09-12T07:58:16.628Z,1013.26
2022-09-12T07:59:29.923Z,1013.29
2022-09-12T08:00:16.671Z,1013.30
2022-09-12T08:01:16.787Z,1013.30
2022-09-12T08:02:17.688Z,1013.30
2022-09-12T08:03:16.697Z,1013.30
2022-09-12T08:04:16.709Z,1013.32
2022-09-12T08:05:16.731Z,1013.31
2022-09-12T08:06:16.752Z,1013.23
2022-09-12T08:07:16.761Z,1013.19
2022-09-12T08:08:16.782Z,1013.30
2022-09-12T08:09:16.790Z,1013.29
2022-09-12T08:10:16.812Z,1013.33
2022-09-12T08:11:16.830Z,1013.34
2022-09-12T08:12:16.834Z,1013.36
2022-09-12T08:13:16.857Z,1013.33
2022-09-12T08:14:16.876Z,1013.30
2022-09-12T08:15:16.902Z,1013.32
2022-09-12T08:16:16.900Z,1013.30
2022-09-12T08:17:16.906Z,1013.30
2022-09-12T08:18:16.930Z,1013.31
2022-09-12T08:19:16.960Z,1013.31
2022-09-12T08:20:16.953Z,1013.30
2022-09-12T08:21:16.974Z,1013.29
2022-09-12T08:22:16.984Z,1013.32
2022-09-12T08:23:16.994Z,1013.25
2022-09-12T08:24:17.015Z,1013.31
2022-09-12T08:25:17.019Z,1013.25
2022-09-12T08:26:17.040Z,1013.28
2022-09-12T08:27:17.060Z,1013.25
2022-09-12T08:28:17.085Z,1013.25
2022-09-12T08:29:17.077Z,1013.23
2022-09-12T08:30:17.086Z,1013.20
2022-09-12T08:31:17.144Z,1013.24
2022-09-12T08:32:17.109Z,1013.18
2022-09-12T08:33:17.121Z,1013.22
2022-09-12T08:34:17.859Z,1013.21
2022-09-12T08:35:17.154Z,1013.22
2022-09-12T08:36:17.156Z,1013.25
2022-09-12T08:37:17.165Z,1013.24
2022-09-12T08:38:17.182Z,1013.19
2022-09-12T08:39:17.176Z,1013.24
2022-09-12T08:40:17.257Z,1013.21
2022-09-12T08:41:17.210Z,1013.18
2022-09-12T08:42:17.202Z,1013.20
2022-09-12T08:43:17.226Z,1013.19
2022-09-12T08:44:17.214Z,1013.16
2022-09-12T08:45:17.262Z,1013.17
2022-09-12T08:46:17.402Z,1013.17
2022-09-12T08:47:17.250Z,1013.23
2022-09-12T08:48:17.244Z,1013.22
2022-09-12T08:49:17.255Z,1013.18
2022-09-12T08:50:17.258Z,1013.18
2022-09-12T08:51:17.266Z,1013.17
2022-09-12T08:52:17.276Z,1013.18
2022-09-12T08:53:17.278Z,1013.16
2022-09-12T08:54:17.287Z,1013.19
2022-09-12T08:55:17.302Z,1013.17
2022-09-12T08:56:17.303Z,1013.15
2022-09-12T08:57:17.297Z,1013.20
2022-09-12T08:58:17.314Z,1013.17
2022-09-12T08:59:17.311Z,1013.18
2022-09-12T09:00:17.319Z,1013.13
2022-09-12T09:01:17.360Z,1013.13
2022-09-12T09:02:17.350Z,1013.08
2022-09-12T09:03:17.331Z,1013.05
2022-09-12T09:04:17.338Z,1013.10
2022-09-12T09:05:17.343Z,1013.10
2022-09-12T09:06:17.353Z,1013.11
2022-09-12T09:07:17.357Z,1013.07
2022-09-12T09:08:17.354Z,1013.08
2022-09-12T09:09:17.365Z,1013.08
2022-09-12T09:10:17.369Z,1013.06
2022-09-12T09:11:17.374Z,1013.12
2022-09-12T09:12:17.373Z,1013.09
2022-09-12T09:13:17.372Z,1013.06
2022-09-12T09:14:17.384Z,1013.06
2022-09-12T09:15:17.397Z,1013.08
2022-09-12T09:16:17.465Z,1013.05
2022-09-12T09:17:17.393Z,1013.00
2022-09-12T09:18:17.408Z,1012.97
2022-09-12T09:19:17.417Z,1013.03
2022-09-12T09:20:17.406Z,1013.00
2022-09-12T09:21:17.414Z,1012.99
2022-09-12T09:22:17.413Z,1012.98
2022-09-12T09:23:17.412Z,1013.00
2022-09-12T09:24:17.416Z,1012.99
2022-09-12T09:25:22.113Z,1013.01
2022-09-12T09:26:17.426Z,1013.06
2022-09-12T09:27:39.253Z,1013.06
2022-09-12T09:28:17.433Z,1013.02
2022-09-12T09:29:17.436Z,1013.02
2022-09-12T09:30:17.488Z,1013.02
2022-09-12T09:31:17.506Z,1013.00
2022-09-12T09:32:17.448Z,1012.97
2022-09-12T09:33:17.448Z,1012.96
2022-09-12T09:34:17.471Z,1013.00
2022-09-12T09:35:17.486Z,1012.96
2022-09-12T09:36:17.464Z,1012.98
2022-09-12T09:37:17.487Z,1012.97
2022-09-12T09:38:17.528Z,1012.96
2022-09-12T09:39:17.492Z,1012.94
2022-09-12T09:40:17.530Z,1012.99
2022-09-12T09:41:17.483Z,1012.97
2022-09-12T09:42:17.583Z,1012.98
2022-09-12T09:43:17.489Z,1013.00
2022-09-12T09:44:17.564Z,1013.00
2022-09-12T09:45:17.490Z,1012.94
2022-09-12T09:46:17.601Z,1013.01
2022-09-12T09:47:17.546Z,1012.96
2022-09-12T09:48:17.517Z,1012.98
2022-09-12T09:49:17.500Z,1013.00
2022-09-12T09:50:17.540Z,1012.94
2022-09-12T09:51:17.513Z,1012.96
2022-09-12T09:52:17.549Z,1012.90
2022-09-12T09:53:17.511Z,1012.89
2022-09-12T09:54:17.546Z,1012.91
2022-09-12T09:55:17.518Z,1012.91
2022-09-12T09:56:19.292Z,1012.87
2022-09-12T09:57:17.524Z,1012.87
2022-09-12T09:58:17.558Z,1012.88
2022-09-12T09:59:17.543Z,1012.85
2022-09-12T10:00:17.531Z,1012.86
2022-09-12T10:01:17.651Z,1012.87
2022-09-12T10:02:20.660Z,1012.87
2022-09-12T10:03:17.551Z,1012.87
2022-09-12T10:04:17.554Z,1012.87
2022-09-12T10:05:17.561Z,1012.86
2022-09-12T10:06:17.560Z,1012.85
2022-09-12T10:07:17.568Z,1012.87
2022-09-12T10:08:17.556Z,1012.85
2022-09-12T10:09:17.578Z,1012.81
2022-09-12T10:10:17.569Z,1012.81
2022-09-12T10:11:17.589Z,1012.80
2022-09-12T10:12:17.599Z,1012.85
2022-09-12T10:13:17.579Z,1012.82
2022-09-12T10:14:17.580Z,1012.84
2022-09-12T10:15:17.589Z,1012.83
2022-09-12T10:16:17.641Z,1012.77
2022-09-12T10:17:17.583Z,1012.78
2022-09-12T10:18:17.588Z,1012.80
2022-09-12T10:19:17.603Z,1012.80
2022-09-12T10:20:21.617Z,1012.78
2022-09-12T10:21:17.592Z,1012.76
2022-09-12T10:22:17.615Z,1012.73
2022-09-12T10:23:17.599Z,1012.75
2022-09-12T10:24:17.634Z,1012.75
2022-09-12T10:25:17.602Z,1012.71
2022-09-12T10:26:17.615Z,1012.72
2022-09-12T10:27:17.613Z,1012.74
2022-09-12T10:28:17.620Z,1012.76
2022-09-12T10:29:17.620Z,1012.73
2022-09-12T10:30:17.621Z,1012.71
2022-09-12T10:31:17.763Z,1012.72
2022-09-12T10:32:17.638Z,1012.70
2022-09-12T10:33:17.635Z,1012.73
2022-09-12T10:34:17.679Z,1012.72
2022-09-12T10:35:17.632Z,1012.71
2022-09-12T10:36:17.636Z,1012.71
2022-09-12T10:37:17.647Z,1012.71
2022-09-12T10:38:17.647Z,1012.67
2022-09-12T10:39:17.674Z,1012.64
2022-09-12T10:40:17.701Z,1012.66
2022-09-12T10:41:17.655Z,1012.70
2022-09-12T10:42:21.600Z,1012.67
2022-09-12T10:43:17.665Z,1012.67
2022-09-12T10:44:17.660Z,1012.66
2022-09-12T10:45:17.664Z,1012.65
2022-09-12T10:46:17.892Z,1012.63
2022-09-12T10:47:17.663Z,1012.62
2022-09-12T10:48:17.667Z,1012.61
2022-09-12T10:49:17.683Z,1012.62
2022-09-12T10:50:22.769Z,1012.62
2022-09-12T10:51:17.677Z,1012.57
2022-09-12T10:52:17.679Z,1012.63
2022-09-12T10:53:17.683Z,1012.58
2022-09-12T10:54:17.698Z,1012.61
2022-09-12T10:55:17.707Z,1012.58
2022-09-12T10:56:17.692Z,1012.58
2022-09-12T10:57:17.690Z,1012.55
2022-09-12T10:58:17.699Z,1012.55
2022-09-12T10:59:20.119Z,1012.55
2022-09-12T11:00:17.757Z,1012.56
2022-09-12T11:01:17.761Z,1012.56
2022-09-12T11:02:17.746Z,1012.56
2022-09-12T11:03:17.724Z,1012.57
2022-09-12T11:04:17.709Z,1012.58
2022-09-12T11:05:22.462Z,1012.58
2022-09-12T11:06:17.724Z,1012.58
2022-09-12T11:07:17.726Z,1012.54
2022-09-12T11:08:17.733Z,1012.54
2022-09-12T11:09:17.713Z,1012.55
2022-09-12T11:10:17.733Z,1012.56
2022-09-12T11:11:17.740Z,1012.56
2022-09-12T11:12:17.725Z,1012.57
2022-09-12T11:13:17.732Z,1012.58
2022-09-12T11:14:17.739Z,1012.58
2022-09-12T11:15:17.737Z,1012.55
2022-09-12T11:16:17.772Z,1012.58
2022-09-12T11:17:17.739Z,1012.56
2022-09-12T11:18:17.767Z,1012.56
2022-09-12T11:19:17.757Z,1012.54
2022-09-12T11:20:17.753Z,1012.56
2022-09-12T11:21:17.750Z,1012.56
2022-09-12T11:22:17.767Z,1012.54
2022-09-12T11:23:17.760Z,1012.57
2022-09-12T11:24:17.758Z,1012.58
2022-09-12T11:25:17.768Z,1012.63
2022-09-12T11:26:17.762Z,1012.55
2022-09-12T11:27:17.769Z,1012.59
2022-09-12T11:28:17.785Z,1012.56
2022-09-12T11:29:17.769Z,1012.62
2022-09-12T11:30:17.778Z,1012.59
2022-09-12T11:31:17.805Z,1012.59
2022-09-12T11:32:17.782Z,1012.58
2022-09-12T11:33:17.774Z,1012.55
2022-09-12T11:34:17.780Z,1012.56
2022-09-12T11:35:17.877Z,1012.57
2022-09-12T11:36:17.784Z,1012.51
2022-09-12T11:37:18.251Z,1012.53
2022-09-12T11:38:17.807Z,1012.57
2022-09-12T11:39:17.805Z,1012.55
2022-09-12T11:40:17.950Z,1012.56
2022-09-12T11:41:17.802Z,1012.57
2022-09-12T11:42:17.804Z,1012.56
2022-09-12T11:43:17.807Z,1012.54
2022-09-12T11:44:17.825Z,1012.50
2022-09-12T11:45:17.814Z,1012.48
2022-09-12T11:46:17.903Z,1012.43
2022-09-12T11:47:17.816Z,1012.41
2022-09-12T11:48:17.823Z,1012.43
2022-09-12T11:49:17.832Z,1012.41
2022-09-12T11:50:17.823Z,1012.37
2022-09-12T11:51:17.822Z,1012.37
2022-09-12T11:52:17.829Z,1012.38
2022-09-12T11:53:17.835Z,1012.41
2022-09-12T11:54:17.833Z,1012.34
2022-09-12T11:55:17.863Z,1012.38
2022-09-12T11:56:17.836Z,1012.36
2022-09-12T11:57:17.848Z,1012.39
2022-09-12T11:58:17.842Z,1012.36
2022-09-12T11:59:17.845Z,1012.36
2022-09-12T12:00:17.846Z,1012.37
2022-09-12T12:01:17.851Z,1012.33
2022-09-12T12:02:17.907Z,1012.32
2022-09-12T12:03:17.934Z,1012.35
2022-09-12T12:04:17.858Z,1012.31
2022-09-12T12:05:17.857Z,1012.29
2022-09-12T12:06:17.863Z,1012.26
2022-09-12T12:07:17.865Z,1012.29
2022-09-12T12:08:17.871Z,1012.28
2022-09-12T12:09:17.870Z,1012.29
2022-09-12T12:10:17.872Z,1012.27
2022-09-12T12:11:17.874Z,1012.22
2022-09-12T12:12:17.890Z,1012.26
2022-09-12T12:13:17.900Z,1012.24
2022-09-12T12:14:17.900Z,1012.24
2022-09-12T12:15:17.887Z,1012.25
2022-09-12T12:16:17.943Z,1012.19
2022-09-12T12:17:17.899Z,1012.18
2022-09-12T12:18:17.911Z,1012.13
2022-09-12T12:19:17.902Z,1012.13
2022-09-12T12:20:17.908Z,1012.11
2022-09-12T12:21:17.923Z,1012.11
2022-09-12T12:22:17.899Z,1012.08
2022-09-12T12:23:17.907Z,1012.10
2022-09-12T12:24:17.914Z,1012.11
2022-09-12T12:25:21.410Z,1012.10
2022-09-12T12:26:17.921Z,1012.08
2022-09-12T12:27:17.921Z,1012.06
2022-09-12T12:28:17.920Z,1012.04
2022-09-12T12:29:17.929Z,1012.03
2022-09-12T12:30:17.933Z,1012.03
2022-09-12T12:31:17.986Z,1012.05
2022-09-12T12:32:17.929Z,1012.04
2022-09-12T12:33:18.464Z,1012.07
2022-09-12T12:34:17.952Z,1012.08
2022-09-12T12:35:17.951Z,1012.03
2022-09-12T12:36:17.949Z,1012.02
2022-09-12T12:37:17.965Z,1012.03
2022-09-12T12:38:17.951Z,1012.05
2022-09-12T12:39:17.952Z,1012.05
2022-09-12T12:40:17.985Z,1012.01
2022-09-12T12:41:17.997Z,1012.05